Latest Weather Observations for Kyabram

IDV60801

Issued at 9:05 pm EST Monday 1 September 2014 (issued every 30 minutes, with the page automatically refreshed every 10 minutes)

About weather observations | Map of weather stations | Latest weather observations for VIC | Other Formats
Station Details ID: 080091 Name: KYABRAM Lat: -36.34 Lon: 145.06 Height: 105.0 m
Data from the previous 72 hours. | See also: Recent months at Kyabram
Date/Time
EST
Temp
°C
App
Temp
°C
Dew
Point
Rel
Hum
%
Delta-T
°C
Wind Press
QNH
hPa
Press
MSL
hPa
Rain
since 9 am
mm
Dir
 
Spd
km/h
Gust
km/h
Spd
kts
Gust
kts
01/09:00pm 8.1 7.7 8.1 100 0.0 E 0 0 0 0 - - 11.2
01/08:30pm 8.2 7.4 8.2 100 0.0 W 2 7 1 4 - - 11.0
01/08:00pm 8.4 8.0 8.3 99 0.0 SSW 0 0 0 0 - - 11.0
01/07:30pm 8.7 7.2 8.6 99 0.0 WNW 6 9 3 5 - - 11.0
01/07:00pm 10.6 8.0 10.6 100 0.0 NNW 15 20 8 11 - - 10.0
01/06:30pm 10.7 7.7 10.7 100 0.0 N 17 22 9 12 - - 10.0
01/06:00pm 10.9 9.1 10.9 100 0.0 NW 11 17 6 9 - - 9.0
01/05:30pm 11.3 8.9 11.3 100 0.0 NNW 15 20 8 11 - - 8.8
01/05:00pm 11.3 9.6 11.3 100 0.0 NNW 11 19 6 10 - - 8.4
01/04:30pm 11.5 10.6 11.5 100 0.0 WNW 7 11 4 6 - - 7.2
01/04:00pm 11.8 11.0 11.8 100 0.0 NW 7 17 4 9 - - 6.2
01/03:30pm 12.0 11.9 12.0 100 0.0 NW 4 9 2 5 - - 5.4
01/03:00pm 11.8 11.2 11.8 100 0.0 WNW 6 9 3 5 - - 4.8
01/02:30pm 11.8 11.2 11.8 100 0.0 WNW 6 13 3 7 - - 4.0
01/02:00pm 12.0 11.3 12.0 100 0.0 NW 7 9 4 5 - - 2.6
01/01:30pm 11.8 10.6 11.6 99 0.1 W 9 15 5 8 - - 1.6
01/01:00pm 12.6 10.8 10.8 89 0.9 W 11 19 6 10 - - 0.6
01/12:30pm 13.8 12.4 9.5 75 2.2 WSW 7 13 4 7 - - 0.0
01/12:00pm 15.7 13.2 8.0 60 3.9 W 11 20 6 11 - - 0.0
01/11:30am 15.5 11.7 6.0 53 4.6 WNW 15 26 8 14 - - 0.0
01/11:00am 15.7 12.2 5.6 51 4.9 NW 13 24 7 13 - - 0.0
01/10:30am 15.8 12.7 7.3 57 4.2 N 13 19 7 10 - - 0.0
01/10:00am 13.7 11.0 7.5 66 3.1 N 11 15 6 8 - - 0.0
01/09:30am 13.2 10.3 6.5 64 3.2 NNE 11 17 6 9 - - 0.0
01/09:00am 12.8 9.9 6.6 66 3.0 NNE 11 17 6 9 - - 0.0
01/08:30am 12.6 8.8 6.0 64 3.1 NNE 15 20 8 11 - - 0.0
01/08:00am 12.2 8.7 5.6 64 3.1 NNE 13 20 7 11 - - 0.0
01/07:30am 11.8 8.4 5.7 66 2.9 NNE 13 20 7 11 - - 0.0
01/07:00am 11.5 8.1 5.8 68 2.7 NNE 13 19 7 10 - - 0.0
01/06:30am 11.0 8.3 5.7 70 2.5 NE 9 17 5 9 - - 0.0
01/06:00am 11.3 8.3 5.8 69 2.6 NE 11 17 6 9 - - 0.0
01/05:30am 11.3 7.9 5.8 69 2.6 NNE 13 17 7 9 - - 0.0
01/05:00am 11.4 8.0 5.9 69 2.6 NE 13 20 7 11 - - 0.0
01/04:30am 10.9 7.9 5.9 71 2.3 NE 11 17 6 9 - - 0.0
01/04:00am 10.6 7.6 5.8 72 2.2 NNE 11 17 6 9 - - 0.0
01/03:30am 10.6 7.5 5.6 71 2.3 NNE 11 17 6 9 - - 0.0
01/03:00am 10.2 7.2 6.0 75 2.0 NE 11 15 6 8 - - 0.0
01/02:30am 10.2 7.6 6.0 75 2.0 NNE 9 15 5 8 - - 0.0
01/02:00am 10.3 7.7 6.3 76 1.9 NE 9 15 5 8 - - 0.0
01/01:30am 9.6 7.3 5.8 77 1.7 NNE 7 13 4 7 - - 0.0
01/01:00am 10.0 7.8 6.2 77 1.8 NE 7 11 4 6 - - 0.0
01/12:30am 10.7 8.4 5.9 72 2.2 NE 7 11 4 6 - - 0.0
01/12:00am 12.2 8.9 6.3 67 2.8 NE 13 20 7 11 - - 0.0
 
Date/Time
EST
Temp
°C
App
Temp
°C
Dew
Point
Rel
Hum
%
Delta-T
°C
Wind Press
QNH
hPa
Press
MSL
hPa
Rain
since 9 am
mm
Dir
 
Spd
km/h
Gust
km/h
Spd
kts
Gust
kts
31/11:30pm 12.0 9.5 6.5 69 2.6 NE 9 15 5 8 - - 0.0
31/11:00pm 12.3 9.4 6.6 68 2.7 NE 11 15 6 8 - - 0.0
31/10:30pm 12.3 9.9 6.8 69 2.6 NE 9 15 5 8 - - 0.0
31/10:00pm 12.7 9.9 7.0 68 2.8 ENE 11 17 6 9 - - 0.0
31/09:30pm 12.7 10.0 7.4 70 2.6 ENE 11 15 6 8 - - 0.0
31/09:00pm 13.3 11.0 7.5 68 2.9 ENE 9 13 5 7 - - 0.0
31/08:30pm 13.9 11.7 7.9 67 3.0 NE 9 19 5 10 - - 0.0
31/08:00pm 14.5 12.1 8.5 67 3.0 ENE 11 15 6 8 - - 0.0
31/07:30pm 14.7 12.2 8.4 66 3.2 ENE 11 13 6 7 - - 0.0
31/07:00pm 15.3 12.8 8.1 62 3.6 ENE 11 15 6 8 - - 0.0
31/06:30pm 15.7 13.6 8.2 61 3.8 ENE 9 15 5 8 - - 0.0
31/06:00pm 16.1 14.0 8.3 60 4.0 ENE 9 11 5 6 - - 0.0
31/05:30pm 16.5 14.5 8.5 59 4.1 ENE 9 15 5 8 - - 0.0
31/05:00pm 17.8 15.8 8.6 55 4.8 NE 9 13 5 7 - - 0.0
31/04:30pm 19.2 17.3 9.1 52 5.3 NE 9 17 5 9 - - 0.0
31/04:00pm 20.7 18.5 8.0 44 6.6 NE 9 17 5 9 - - 0.0
31/03:30pm 20.6 18.2 10.1 51 5.7 NNE 13 20 7 11 - - 0.0
31/03:00pm 21.0 18.5 9.6 48 6.1 NNE 13 20 7 11 - - 0.0
31/02:30pm 21.0 18.8 10.8 52 5.6 NNE 13 20 7 11 - - 0.0
31/02:00pm 20.5 17.5 9.1 48 6.1 N 15 26 8 14 - - 0.0
31/01:30pm 20.0 16.6 9.3 50 5.7 N 17 26 9 14 - - 0.0
31/01:00pm 19.3 16.5 8.6 50 5.6 NNE 13 24 7 13 - - 0.0
31/12:30pm 18.4 15.6 8.7 53 5.1 NNE 13 22 7 12 - - 0.0
31/12:00pm 18.1 16.0 9.7 58 4.5 NNE 11 20 6 11 - - 0.0
31/11:30am 17.4 14.7 9.1 58 4.3 NNE 13 20 7 11 - - 0.0
31/11:00am 16.4 13.7 9.1 62 3.8 NNE 13 20 7 11 - - 0.0
31/10:30am 15.8 13.8 10.1 69 3.0 NNE 11 17 6 9 - - 0.0
31/10:00am 13.8 11.8 8.6 71 2.6 NNE 9 15 5 8 - - 0.0
31/09:30am 12.7 10.3 8.8 77 2.0 NE 11 15 6 8 - - 0.0
31/09:00am 11.4 9.1 9.0 85 1.2 ENE 11 15 6 8 - - 0.2
31/08:30am 10.1 8.2 9.2 94 0.4 NE 9 15 5 8 - - 0.2
31/08:00am 8.4 6.3 8.4 100 0.0 ENE 9 13 5 7 - - 0.2
31/07:30am 6.9 4.9 6.9 100 0.0 E 7 11 4 6 - - 0.2
31/07:00am 5.6 2.9 5.6 100 0.0 E 9 11 5 6 - - 0.0
31/06:30am 5.6 3.3 5.6 100 0.0 E 7 11 4 6 - - 0.0
31/06:00am 5.8 3.5 5.8 100 0.0 E 7 9 4 5 - - 0.0
31/05:30am 6.0 3.8 6.0 100 0.0 E 7 9 4 5 - - 0.0
31/05:00am 6.2 4.2 6.2 100 0.0 E 6 7 3 4 - - 0.0
31/04:30am 6.4 4.2 6.4 100 0.0 E 7 9 4 5 - - 0.0
31/04:00am 6.4 4.4 6.4 100 0.0 E 6 7 3 4 - - 0.0
31/03:30am 6.8 4.7 6.8 100 0.0 E 7 9 4 5 - - 0.0
31/03:00am 6.9 6.2 6.9 100 0.0 CALM 0 0 0 0 - - 0.0
31/02:30am 7.0 6.3 7.0 100 0.0 CALM 0 0 0 0 - - 0.0
31/02:00am 7.3 6.7 7.3 100 0.0 CALM 0 0 0 0 - - 0.0
31/01:30am 7.3 6.7 7.3 100 0.0 CALM 0 0 0 0 - - 0.0
31/01:00am 7.0 6.3 7.0 100 0.0 CALM 0 0 0 0 - - 0.0
31/12:30am 7.5 6.9 7.5 100 0.0 CALM 0 0 0 0 - - 0.0
31/12:00am 7.4 6.8 7.4 100 0.0 CALM 0 0 0 0 - - 0.0
 
Date/Time
EST
Temp
°C
App
Temp
°C
Dew
Point
Rel
Hum
%
Delta-T
°C
Wind Press
QNH
hPa
Press
MSL
hPa
Rain
since 9 am
mm
Dir
 
Spd
km/h
Gust
km/h
Spd
kts
Gust
kts
30/11:30pm 7.6 7.0 7.6 100 0.0 CALM 0 0 0 0 - - 0.0
30/11:00pm 8.1 7.7 8.1 100 0.0 CALM 0 0 0 0 - - 0.0
30/10:30pm 8.1 7.6 8.0 99 0.0 CALM 0 0 0 0 - - 0.0
30/10:00pm 9.2 9.0 9.1 99 0.0 CALM 0 0 0 0 - - 0.0
30/09:30pm 9.4 9.3 9.3 99 0.0 CALM 0 0 0 0 - - 0.0
30/09:00pm 10.2 10.1 9.4 95 0.4 CALM 0 0 0 0 - - 0.0
30/08:30pm 10.8 10.8 9.7 93 0.6 CALM 0 0 0 0 - - 0.0
30/08:00pm 11.4 11.3 9.5 88 1.0 CALM 0 0 0 0 - - 0.0
30/07:30pm 11.5 11.4 9.4 87 1.1 CALM 0 0 0 0 - - 0.0
30/07:00pm 12.3 12.1 9.1 81 1.6 CALM 0 0 0 0 - - 0.0
30/06:30pm 13.2 13.1 9.6 79 1.8 CALM 0 0 0 0 - - 0.0
30/06:00pm 15.4 15.3 9.3 67 3.2 CALM 0 0 0 0 - - 0.0
30/05:30pm 17.3 17.4 10.2 63 3.8 CALM 0 0 0 0 - - 0.0
30/05:00pm 18.7 18.8 10.0 57 4.7 CALM 0 0 0 0 - - 0.0
30/04:30pm 19.1 18.6 9.3 53 5.2 ENE 2 13 1 7 - - 0.0
30/04:00pm 19.0 16.8 9.2 53 5.2 N 11 15 6 8 - - 0.0
30/03:30pm 19.4 19.2 10.4 56 4.9 NNE 2 13 1 7 - - 0.0
30/03:00pm 18.9 19.1 10.7 59 4.5 CALM 0 11 0 6 - - 0.0
30/02:30pm 19.4 18.7 9.9 54 5.1 ENE 4 15 2 8 - - 0.0
30/02:00pm 19.0 19.2 10.6 58 4.6 CALM 0 4 0 2 - - 0.0
30/01:30pm 18.6 18.1 10.7 60 4.3 N 4 11 2 6 - - 0.0
30/01:00pm 18.2 17.1 10.1 59 4.3 NNE 6 15 3 8 - - 0.0
30/12:30pm 17.7 16.7 11.0 65 3.6 NNE 7 15 4 8 - - 0.0
30/12:00pm 17.3 16.9 11.1 67 3.4 NNE 4 13 2 7 - - 0.0
30/11:30am 16.1 14.8 11.1 72 2.7 N 9 13 5 7 - - 0.0
30/11:00am 15.6 13.7 10.6 72 2.7 NNE 11 15 6 8 - - 0.0
30/10:30am 14.4 13.0 10.8 79 1.9 NE 9 15 5 8 - - 0.0
30/10:00am 13.4 11.9 10.6 83 1.5 ENE 9 15 5 8 - - 0.0
30/09:30am 11.8 10.1 11.2 96 0.3 E 11 15 6 8 - - 0.0
30/09:00am 10.1 - 10.2 - - ENE 9 15 5 8 - - 0.0
30/08:30am 7.9 - 8.0 - - CALM 0 0 0 0 - - 0.0
30/08:00am 5.2 - 5.3 - - CALM 0 0 0 0 - - 0.0
30/07:30am 2.5 0.9 2.5 100 0.0 CALM 0 0 0 0 - - 0.0
30/07:00am 1.8 0.1 1.8 100 0.0 CALM 0 0 0 0 - - 0.0
30/06:30am 2.0 0.3 2.0 100 0.0 CALM 0 0 0 0 - - 0.0
30/06:00am 2.2 0.6 2.2 100 0.0 CALM 0 0 0 0 - - 0.0
30/05:30am 2.3 0.7 2.3 100 0.0 CALM 0 0 0 0 - - 0.0
30/05:00am 2.3 0.7 2.3 100 0.0 CALM 0 0 0 0 - - 0.0
30/04:30am 2.6 1.0 2.6 100 0.0 CALM 0 0 0 0 - - 0.0
30/04:00am 2.4 0.8 2.4 100 0.0 CALM 0 0 0 0 - - 0.0
30/03:30am 2.8 1.3 2.8 100 0.0 CALM 0 0 0 0 - - 0.0
30/03:00am 3.7 2.3 3.7 100 0.0 CALM 0 0 0 0 - - 0.0
30/02:30am 4.5 3.3 4.5 100 0.0 CALM 0 0 0 0 - - 0.0
30/02:00am 5.2 4.1 5.2 100 0.0 CALM 0 0 0 0 - - 0.0
30/01:30am 5.8 4.8 5.8 100 0.0 CALM 0 0 0 0 - - 0.0
30/01:00am 6.1 5.2 6.1 100 0.0 CALM 0 0 0 0 - - 0.0
30/12:30am 6.0 5.1 6.0 100 0.0 CALM 0 0 0 0 - - 0.0
30/12:00am 6.4 5.6 6.4 100 0.0 CALM 0 0 0 0 - - 0.0
 
Date/Time
EST
Temp
°C
App
Temp
°C
Dew
Point
Rel
Hum
%
Delta-T
°C
Wind Press
QNH
hPa
Press
MSL
hPa
Rain
since 9 am
mm
Dir
 
Spd
km/h
Gust
km/h
Spd
kts
Gust
kts
29/11:30pm 6.5 5.7 6.5 100 0.0 CALM 0 0 0 0 - - 0.0
29/11:00pm 6.8 6.1 6.8 100 0.0 CALM 0 0 0 0 - - 0.0
29/10:30pm 7.8 6.2 7.8 100 0.0 S 6 7 3 4 - - 0.0
29/10:00pm 8.2 6.5 8.2 100 0.0 S 7 9 4 5 - - 0.0
29/09:30pm 8.6 6.9 8.5 99 0.0 S 7 11 4 6 - - 0.0

Other Formats:

Comma delimited format used in spreadsheet applications
http://www.bom.gov.au/fwo/IDV60801/IDV60801.95833.axf

JavaScript Object Notation format (JSON) in row-major order
http://www.bom.gov.au/fwo/IDV60801/IDV60801.95833.json